sensor_id;sensor_type;location;lat;lon;timestamp;temperature;humidity
44900;DHT22;30628;51.188;6.770;2023-06-19T00:00:45;25.10;95.70
44900;DHT22;30628;51.188;6.770;2023-06-19T00:03:11;25.10;95.80
44900;DHT22;30628;51.188;6.770;2023-06-19T00:05:38;25.10;95.80
44900;DHT22;30628;51.188;6.770;2023-06-19T00:08:04;25.00;95.80
44900;DHT22;30628;51.188;6.770;2023-06-19T00:10:33;25.00;96.00
44900;DHT22;30628;51.188;6.770;2023-06-19T00:12:59;24.90;95.80
44900;DHT22;30628;51.188;6.770;2023-06-19T00:15:25;24.80;96.00
44900;DHT22;30628;51.188;6.770;2023-06-19T00:17:51;24.90;95.80
44900;DHT22;30628;51.188;6.770;2023-06-19T00:20:17;24.90;96.00
44900;DHT22;30628;51.188;6.770;2023-06-19T00:22:43;24.90;96.20
44900;DHT22;30628;51.188;6.770;2023-06-19T00:25:10;24.90;95.80
44900;DHT22;30628;51.188;6.770;2023-06-19T00:27:36;24.90;95.80
44900;DHT22;30628;51.188;6.770;2023-06-19T00:30:05;24.90;95.80
44900;DHT22;30628;51.188;6.770;2023-06-19T00:32:31;24.90;95.90
44900;DHT22;30628;51.188;6.770;2023-06-19T00:34:57;24.90;95.80
44900;DHT22;30628;51.188;6.770;2023-06-19T00:37:26;24.80;96.20
44900;DHT22;30628;51.188;6.770;2023-06-19T00:39:57;24.80;96.00
44900;DHT22;30628;51.188;6.770;2023-06-19T00:42:24;24.70;96.10
44900;DHT22;30628;51.188;6.770;2023-06-19T00:44:50;24.60;96.50
44900;DHT22;30628;51.188;6.770;2023-06-19T00:47:16;24.80;96.40
44900;DHT22;30628;51.188;6.770;2023-06-19T00:49:42;24.90;95.60
44900;DHT22;30628;51.188;6.770;2023-06-19T00:52:08;24.90;96.20
44900;DHT22;30628;51.188;6.770;2023-06-19T00:54:34;24.90;96.20
44900;DHT22;30628;51.188;6.770;2023-06-19T00:57:01;24.80;96.10
44900;DHT22;30628;51.188;6.770;2023-06-19T00:59:27;24.70;96.60
44900;DHT22;30628;51.188;6.770;2023-06-19T01:01:54;24.70;96.40
44900;DHT22;30628;51.188;6.770;2023-06-19T01:04:20;24.60;96.80
44900;DHT22;30628;51.188;6.770;2023-06-19T01:06:54;24.60;97.00
44900;DHT22;30628;51.188;6.770;2023-06-19T01:09:34;24.60;97.20
44900;DHT22;30628;51.188;6.770;2023-06-19T01:12:08;24.70;96.80
44900;DHT22;30628;51.188;6.770;2023-06-19T01:15:03;24.70;97.00
44900;DHT22;30628;51.188;6.770;2023-06-19T01:17:31;24.60;97.10
44900;DHT22;30628;51.188;6.770;2023-06-19T01:19:59;24.40;97.40
44900;DHT22;30628;51.188;6.770;2023-06-19T01:24:52;24.60;97.00
44900;DHT22;30628;51.188;6.770;2023-06-19T01:27:18;24.60;96.90
44900;DHT22;30628;51.188;6.770;2023-06-19T01:29:44;24.80;96.60
44900;DHT22;30628;51.188;6.770;2023-06-19T01:32:29;24.80;96.40
44900;DHT22;30628;51.188;6.770;2023-06-19T01:34:58;24.70;97.20
44900;DHT22;30628;51.188;6.770;2023-06-19T01:37:25;24.70;97.10
44900;DHT22;30628;51.188;6.770;2023-06-19T01:39:56;24.60;97.00
44900;DHT22;30628;51.188;6.770;2023-06-19T01:42:23;24.90;95.40
44900;DHT22;30628;51.188;6.770;2023-06-19T01:44:51;25.00;94.90
44900;DHT22;30628;51.188;6.770;2023-06-19T01:47:17;25.00;96.30
44900;DHT22;30628;51.188;6.770;2023-06-19T01:49:49;24.80;96.90
44900;DHT22;30628;51.188;6.770;2023-06-19T01:52:15;24.80;96.20
44900;DHT22;30628;51.188;6.770;2023-06-19T01:54:41;25.10;95.70
44900;DHT22;30628;51.188;6.770;2023-06-19T01:57:07;25.00;95.10
44900;DHT22;30628;51.188;6.770;2023-06-19T01:59:34;25.20;94.30
44900;DHT22;30628;51.188;6.770;2023-06-19T02:02:00;25.20;93.50
44900;DHT22;30628;51.188;6.770;2023-06-19T02:04:26;25.30;93.60
44900;DHT22;30628;51.188;6.770;2023-06-19T02:06:52;25.40;93.40
44900;DHT22;30628;51.188;6.770;2023-06-19T02:09:18;25.40;94.90
44900;DHT22;30628;51.188;6.770;2023-06-19T02:11:44;25.30;94.60
44900;DHT22;30628;51.188;6.770;2023-06-19T02:14:10;25.30;95.10
44900;DHT22;30628;51.188;6.770;2023-06-19T02:16:50;25.40;93.80
44900;DHT22;30628;51.188;6.770;2023-06-19T02:19:16;25.40;93.30
44900;DHT22;30628;51.188;6.770;2023-06-19T02:21:42;25.20;94.40
44900;DHT22;30628;51.188;6.770;2023-06-19T02:24:09;25.10;95.00
44900;DHT22;30628;51.188;6.770;2023-06-19T02:26:35;25.20;93.50
44900;DHT22;30628;51.188;6.770;2023-06-19T02:29:01;25.10;93.60
44900;DHT22;30628;51.188;6.770;2023-06-19T02:31:27;25.00;93.80
44900;DHT22;30628;51.188;6.770;2023-06-19T02:33:53;25.20;93.70
44900;DHT22;30628;51.188;6.770;2023-06-19T02:36:19;25.20;95.10
44900;DHT22;30628;51.188;6.770;2023-06-19T02:38:46;25.10;95.40
44900;DHT22;30628;51.188;6.770;2023-06-19T02:41:13;25.00;96.00
44900;DHT22;30628;51.188;6.770;2023-06-19T02:43:44;24.80;96.00
44900;DHT22;30628;51.188;6.770;2023-06-19T02:46:11;24.60;96.80
44900;DHT22;30628;51.188;6.770;2023-06-19T02:48:37;24.20;97.00
44900;DHT22;30628;51.188;6.770;2023-06-19T02:51:03;24.10;96.90
44900;DHT22;30628;51.188;6.770;2023-06-19T02:53:30;24.10;95.10
44900;DHT22;30628;51.188;6.770;2023-06-19T02:55:56;24.00;96.60
44900;DHT22;30628;51.188;6.770;2023-06-19T02:58:22;24.00;96.60
44900;DHT22;30628;51.188;6.770;2023-06-19T03:00:48;23.90;96.50
44900;DHT22;30628;51.188;6.770;2023-06-19T03:03:14;23.70;97.10
44900;DHT22;30628;51.188;6.770;2023-06-19T03:05:40;23.70;96.80
44900;DHT22;30628;51.188;6.770;2023-06-19T03:08:07;23.70;96.70
44900;DHT22;30628;51.188;6.770;2023-06-19T03:10:33;23.70;96.10
44900;DHT22;30628;51.188;6.770;2023-06-19T03:12:59;23.80;96.90
44900;DHT22;30628;51.188;6.770;2023-06-19T03:15:25;23.80;97.20
44900;DHT22;30628;51.188;6.770;2023-06-19T03:17:54;23.90;97.10
44900;DHT22;30628;51.188;6.770;2023-06-19T03:20:21;23.80;97.40
44900;DHT22;30628;51.188;6.770;2023-06-19T03:22:47;23.80;97.40
44900;DHT22;30628;51.188;6.770;2023-06-19T03:25:13;23.80;97.70
44900;DHT22;30628;51.188;6.770;2023-06-19T03:27:39;23.70;97.10
44900;DHT22;30628;51.188;6.770;2023-06-19T03:30:06;23.70;97.50
44900;DHT22;30628;51.188;6.770;2023-06-19T03:32:32;23.60;97.60
44900;DHT22;30628;51.188;6.770;2023-06-19T03:35:01;23.80;97.00
44900;DHT22;30628;51.188;6.770;2023-06-19T03:37:27;23.80;97.70
44900;DHT22;30628;51.188;6.770;2023-06-19T03:39:54;24.00;97.10
44900;DHT22;30628;51.188;6.770;2023-06-19T03:42:20;24.00;96.90
44900;DHT22;30628;51.188;6.770;2023-06-19T03:44:46;24.20;96.10
44900;DHT22;30628;51.188;6.770;2023-06-19T03:47:12;24.10;96.50
44900;DHT22;30628;51.188;6.770;2023-06-19T03:49:38;24.10;97.40
44900;DHT22;30628;51.188;6.770;2023-06-19T03:52:04;23.80;97.90
44900;DHT22;30628;51.188;6.770;2023-06-19T03:54:31;23.80;97.80
44900;DHT22;30628;51.188;6.770;2023-06-19T03:56:57;23.90;96.30
44900;DHT22;30628;51.188;6.770;2023-06-19T03:59:23;23.90;97.30
44900;DHT22;30628;51.188;6.770;2023-06-19T04:01:49;23.90;97.00
44900;DHT22;30628;51.188;6.770;2023-06-19T04:04:15;23.80;97.70
44900;DHT22;30628;51.188;6.770;2023-06-19T04:06:41;23.80;98.40
44900;DHT22;30628;51.188;6.770;2023-06-19T04:09:07;23.70;98.30
44900;DHT22;30628;51.188;6.770;2023-06-19T04:11:34;23.70;97.60
44900;DHT22;30628;51.188;6.770;2023-06-19T04:14:00;23.50;99.10
44900;DHT22;30628;51.188;6.770;2023-06-19T04:16:26;23.50;97.90
44900;DHT22;30628;51.188;6.770;2023-06-19T04:18:52;23.60;98.00
44900;DHT22;30628;51.188;6.770;2023-06-19T04:21:18;23.50;99.30
44900;DHT22;30628;51.188;6.770;2023-06-19T04:23:44;23.50;98.70
44900;DHT22;30628;51.188;6.770;2023-06-19T04:26:11;23.60;99.00
44900;DHT22;30628;51.188;6.770;2023-06-19T04:28:37;23.60;98.70
44900;DHT22;30628;51.188;6.770;2023-06-19T04:31:03;23.70;98.10
44900;DHT22;30628;51.188;6.770;2023-06-19T04:33:29;23.50;99.60
44900;DHT22;30628;51.188;6.770;2023-06-19T04:35:56;23.40;99.90
44900;DHT22;30628;51.188;6.770;2023-06-19T04:38:22;23.60;99.70
44900;DHT22;30628;51.188;6.770;2023-06-19T04:40:50;23.40;99.90
44900;DHT22;30628;51.188;6.770;2023-06-19T04:43:17;23.20;99.90
44900;DHT22;30628;51.188;6.770;2023-06-19T04:45:43;23.20;99.10
44900;DHT22;30628;51.188;6.770;2023-06-19T04:48:10;23.40;99.90
44900;DHT22;30628;51.188;6.770;2023-06-19T04:50:38;23.50;99.60
44900;DHT22;30628;51.188;6.770;2023-06-19T04:53:04;23.70;99.70
44900;DHT22;30628;51.188;6.770;2023-06-19T04:55:39;23.60;98.20
44900;DHT22;30628;51.188;6.770;2023-06-19T04:58:05;23.70;99.50
44900;DHT22;30628;51.188;6.770;2023-06-19T05:00:31;23.70;99.20
44900;DHT22;30628;51.188;6.770;2023-06-19T05:02:57;23.70;97.90
44900;DHT22;30628;51.188;6.770;2023-06-19T05:05:29;23.80;98.40
44900;DHT22;30628;51.188;6.770;2023-06-19T05:07:55;23.70;99.90
44900;DHT22;30628;51.188;6.770;2023-06-19T05:10:21;23.70;99.20
44900;DHT22;30628;51.188;6.770;2023-06-19T05:12:47;23.70;99.80
44900;DHT22;30628;51.188;6.770;2023-06-19T05:15:13;23.80;99.20
44900;DHT22;30628;51.188;6.770;2023-06-19T05:17:39;23.80;98.50
44900;DHT22;30628;51.188;6.770;2023-06-19T05:20:06;23.80;99.60
44900;DHT22;30628;51.188;6.770;2023-06-19T05:22:35;23.90;98.30
44900;DHT22;30628;51.188;6.770;2023-06-19T05:25:02;24.00;97.90
44900;DHT22;30628;51.188;6.770;2023-06-19T05:27:28;23.90;98.50
44900;DHT22;30628;51.188;6.770;2023-06-19T05:29:54;23.80;99.90
44900;DHT22;30628;51.188;6.770;2023-06-19T05:32:21;24.00;99.70
44900;DHT22;30628;51.188;6.770;2023-06-19T05:34:47;24.00;97.10
44900;DHT22;30628;51.188;6.770;2023-06-19T05:37:13;24.10;97.90
44900;DHT22;30628;51.188;6.770;2023-06-19T05:39:39;24.20;97.20
44900;DHT22;30628;51.188;6.770;2023-06-19T05:42:05;24.20;98.40
44900;DHT22;30628;51.188;6.770;2023-06-19T05:44:32;24.40;97.70
44900;DHT22;30628;51.188;6.770;2023-06-19T05:46:58;24.30;96.90
44900;DHT22;30628;51.188;6.770;2023-06-19T05:49:24;24.30;98.50
44900;DHT22;30628;51.188;6.770;2023-06-19T05:51:50;24.00;98.20
44900;DHT22;30628;51.188;6.770;2023-06-19T05:54:16;24.20;98.70
44900;DHT22;30628;51.188;6.770;2023-06-19T05:56:43;24.20;97.50
44900;DHT22;30628;51.188;6.770;2023-06-19T05:59:09;23.90;99.80
44900;DHT22;30628;51.188;6.770;2023-06-19T06:01:35;23.90;99.30
44900;DHT22;30628;51.188;6.770;2023-06-19T06:04:02;24.00;99.20
44900;DHT22;30628;51.188;6.770;2023-06-19T06:06:29;23.90;99.60
44900;DHT22;30628;51.188;6.770;2023-06-19T06:08:55;24.10;98.20
44900;DHT22;30628;51.188;6.770;2023-06-19T06:11:22;24.20;98.20
44900;DHT22;30628;51.188;6.770;2023-06-19T06:13:48;24.20;99.10
44900;DHT22;30628;51.188;6.770;2023-06-19T06:16:14;24.10;99.90
44900;DHT22;30628;51.188;6.770;2023-06-19T06:18:41;24.10;99.20
44900;DHT22;30628;51.188;6.770;2023-06-19T06:21:07;24.10;99.90
44900;DHT22;30628;51.188;6.770;2023-06-19T06:23:40;23.90;99.10
44900;DHT22;30628;51.188;6.770;2023-06-19T06:26:06;23.80;99.90
44900;DHT22;30628;51.188;6.770;2023-06-19T06:28:33;23.90;98.90
44900;DHT22;30628;51.188;6.770;2023-06-19T06:30:59;23.90;99.90
44900;DHT22;30628;51.188;6.770;2023-06-19T06:33:25;24.10;99.30
44900;DHT22;30628;51.188;6.770;2023-06-19T06:35:51;24.30;98.90
44900;DHT22;30628;51.188;6.770;2023-06-19T06:38:20;24.30;99.00
44900;DHT22;30628;51.188;6.770;2023-06-19T06:40:46;24.30;98.10
44900;DHT22;30628;51.188;6.770;2023-06-19T06:43:12;24.20;99.70
44900;DHT22;30628;51.188;6.770;2023-06-19T06:45:38;24.20;99.40
44900;DHT22;30628;51.188;6.770;2023-06-19T06:48:05;24.10;99.90
44900;DHT22;30628;51.188;6.770;2023-06-19T06:50:33;23.90;99.80
44900;DHT22;30628;51.188;6.770;2023-06-19T06:52:59;23.80;99.90
44900;DHT22;30628;51.188;6.770;2023-06-19T06:55:26;24.00;98.30
44900;DHT22;30628;51.188;6.770;2023-06-19T06:57:52;23.80;99.70
44900;DHT22;30628;51.188;6.770;2023-06-19T07:00:18;23.80;99.90
44900;DHT22;30628;51.188;6.770;2023-06-19T07:02:44;23.80;99.50
44900;DHT22;30628;51.188;6.770;2023-06-19T07:05:13;23.70;99.90
44900;DHT22;30628;51.188;6.770;2023-06-19T07:07:39;23.80;99.10
44900;DHT22;30628;51.188;6.770;2023-06-19T07:10:09;23.80;99.90
44900;DHT22;30628;51.188;6.770;2023-06-19T07:12:35;23.70;99.80
44900;DHT22;30628;51.188;6.770;2023-06-19T07:15:10;23.90;99.90
44900;DHT22;30628;51.188;6.770;2023-06-19T07:17:36;24.00;99.80
44900;DHT22;30628;51.188;6.770;2023-06-19T07:20:02;23.90;99.90
44900;DHT22;30628;51.188;6.770;2023-06-19T07:22:28;23.90;99.90
44900;DHT22;30628;51.188;6.770;2023-06-19T07:24:55;23.80;99.90
44900;DHT22;30628;51.188;6.770;2023-06-19T07:27:21;24.00;99.30
44900;DHT22;30628;51.188;6.770;2023-06-19T07:29:47;24.10;99.20
44900;DHT22;30628;51.188;6.770;2023-06-19T07:32:14;23.80;99.90
44900;DHT22;30628;51.188;6.770;2023-06-19T07:34:40;23.50;99.90
44900;DHT22;30628;51.188;6.770;2023-06-19T07:37:06;23.40;99.90
44900;DHT22;30628;51.188;6.770;2023-06-19T07:39:32;23.20;99.90
44900;DHT22;30628;51.188;6.770;2023-06-19T07:41:58;23.10;99.90
44900;DHT22;30628;51.188;6.770;2023-06-19T07:44:24;23.00;99.90
44900;DHT22;30628;51.188;6.770;2023-06-19T07:46:50;23.10;99.90
44900;DHT22;30628;51.188;6.770;2023-06-19T07:49:16;23.20;99.90
44900;DHT22;30628;51.188;6.770;2023-06-19T07:51:43;23.40;99.90
44900;DHT22;30628;51.188;6.770;2023-06-19T07:54:09;23.30;99.90
44900;DHT22;30628;51.188;6.770;2023-06-19T07:56:35;23.30;99.90
44900;DHT22;30628;51.188;6.770;2023-06-19T07:59:01;23.30;99.90
44900;DHT22;30628;51.188;6.770;2023-06-19T08:01:27;23.30;99.90
44900;DHT22;30628;51.188;6.770;2023-06-19T08:03:53;23.50;99.90
44900;DHT22;30628;51.188;6.770;2023-06-19T08:06:19;23.70;99.90
44900;DHT22;30628;51.188;6.770;2023-06-19T08:08:45;23.90;99.90
44900;DHT22;30628;51.188;6.770;2023-06-19T08:11:12;23.80;99.90
44900;DHT22;30628;51.188;6.770;2023-06-19T08:13:38;24.10;99.90
44900;DHT22;30628;51.188;6.770;2023-06-19T08:16:05;24.30;99.90
44900;DHT22;30628;51.188;6.770;2023-06-19T08:18:39;24.60;99.90
44900;DHT22;30628;51.188;6.770;2023-06-19T08:21:05;24.70;99.90
44900;DHT22;30628;51.188;6.770;2023-06-19T08:23:31;24.90;99.30
44900;DHT22;30628;51.188;6.770;2023-06-19T08:25:58;25.10;99.90
44900;DHT22;30628;51.188;6.770;2023-06-19T08:28:24;25.20;98.80
44900;DHT22;30628;51.188;6.770;2023-06-19T08:30:50;25.30;99.90
44900;DHT22;30628;51.188;6.770;2023-06-19T08:33:16;25.60;99.10
44900;DHT22;30628;51.188;6.770;2023-06-19T08:35:42;25.60;99.40
44900;DHT22;30628;51.188;6.770;2023-06-19T08:38:10;25.50;99.40
44900;DHT22;30628;51.188;6.770;2023-06-19T08:40:36;25.60;98.80
44900;DHT22;30628;51.188;6.770;2023-06-19T08:43:02;25.80;97.70
44900;DHT22;30628;51.188;6.770;2023-06-19T08:45:29;26.10;97.00
44900;DHT22;30628;51.188;6.770;2023-06-19T08:47:59;26.20;97.50
44900;DHT22;30628;51.188;6.770;2023-06-19T08:50:26;26.20;96.80
44900;DHT22;30628;51.188;6.770;2023-06-19T08:52:52;26.30;96.10
44900;DHT22;30628;51.188;6.770;2023-06-19T08:55:18;26.20;97.60
44900;DHT22;30628;51.188;6.770;2023-06-19T08:57:44;26.30;97.80
44900;DHT22;30628;51.188;6.770;2023-06-19T09:00:23;26.40;97.00
44900;DHT22;30628;51.188;6.770;2023-06-19T09:02:51;26.50;97.10
44900;DHT22;30628;51.188;6.770;2023-06-19T09:05:19;26.40;97.40
44900;DHT22;30628;51.188;6.770;2023-06-19T09:07:55;26.40;97.50
44900;DHT22;30628;51.188;6.770;2023-06-19T09:10:21;26.40;97.30
44900;DHT22;30628;51.188;6.770;2023-06-19T09:15:23;26.50;97.10
44900;DHT22;30628;51.188;6.770;2023-06-19T09:18:07;26.80;96.50
44900;DHT22;30628;51.188;6.770;2023-06-19T09:20:40;27.00;95.70
44900;DHT22;30628;51.188;6.770;2023-06-19T09:23:13;27.10;96.00
44900;DHT22;30628;51.188;6.770;2023-06-19T09:25:51;27.20;96.00
44900;DHT22;30628;51.188;6.770;2023-06-19T09:28:25;27.40;95.70
44900;DHT22;30628;51.188;6.770;2023-06-19T09:31:02;27.30;95.70
44900;DHT22;30628;51.188;6.770;2023-06-19T09:33:33;27.30;95.20
44900;DHT22;30628;51.188;6.770;2023-06-19T09:36:01;27.30;95.40
44900;DHT22;30628;51.188;6.770;2023-06-19T09:38:29;27.30;95.40
44900;DHT22;30628;51.188;6.770;2023-06-19T09:40:57;27.40;95.40
44900;DHT22;30628;51.188;6.770;2023-06-19T09:43:37;27.40;95.40
44900;DHT22;30628;51.188;6.770;2023-06-19T09:46:05;27.70;95.00
44900;DHT22;30628;51.188;6.770;2023-06-19T09:48:33;27.80;94.80
44900;DHT22;30628;51.188;6.770;2023-06-19T09:53:46;27.90;94.70
44900;DHT22;30628;51.188;6.770;2023-06-19T09:56:13;27.80;94.30
44900;DHT22;30628;51.188;6.770;2023-06-19T09:58:50;27.60;94.70
44900;DHT22;30628;51.188;6.770;2023-06-19T10:01:17;27.40;94.80
44900;DHT22;30628;51.188;6.770;2023-06-19T10:03:44;27.40;94.50
44900;DHT22;30628;51.188;6.770;2023-06-19T10:06:15;27.20;94.90
44900;DHT22;30628;51.188;6.770;2023-06-19T10:08:44;27.50;94.70
44900;DHT22;30628;51.188;6.770;2023-06-19T10:11:19;27.60;94.70
44900;DHT22;30628;51.188;6.770;2023-06-19T10:13:45;27.80;94.10
44900;DHT22;30628;51.188;6.770;2023-06-19T10:16:22;28.00;93.80
44900;DHT22;30628;51.188;6.770;2023-06-19T10:18:49;28.10;94.50
44900;DHT22;30628;51.188;6.770;2023-06-19T10:21:17;28.20;93.70
44900;DHT22;30628;51.188;6.770;2023-06-19T10:24:01;28.30;93.80
44900;DHT22;30628;51.188;6.770;2023-06-19T10:26:32;28.30;93.40
44900;DHT22;30628;51.188;6.770;2023-06-19T10:28:59;28.30;93.40
44900;DHT22;30628;51.188;6.770;2023-06-19T10:31:25;28.20;93.20
44900;DHT22;30628;51.188;6.770;2023-06-19T10:33:51;28.40;93.80
44900;DHT22;30628;51.188;6.770;2023-06-19T10:36:19;28.50;93.60
44900;DHT22;30628;51.188;6.770;2023-06-19T10:38:47;28.70;93.10
44900;DHT22;30628;51.188;6.770;2023-06-19T10:41:24;28.80;93.00
44900;DHT22;30628;51.188;6.770;2023-06-19T10:43:57;28.60;92.30
44900;DHT22;30628;51.188;6.770;2023-06-19T10:46:28;28.60;93.20
44900;DHT22;30628;51.188;6.770;2023-06-19T10:48:55;28.70;92.60
44900;DHT22;30628;51.188;6.770;2023-06-19T10:51:31;28.80;92.90
44900;DHT22;30628;51.188;6.770;2023-06-19T10:53:58;28.90;92.70
44900;DHT22;30628;51.188;6.770;2023-06-19T10:56:24;28.70;92.60
44900;DHT22;30628;51.188;6.770;2023-06-19T10:59:02;28.30;92.60
44900;DHT22;30628;51.188;6.770;2023-06-19T11:01:39;28.40;92.20
44900;DHT22;30628;51.188;6.770;2023-06-19T11:04:15;28.40;92.00
44900;DHT22;30628;51.188;6.770;2023-06-19T11:06:43;28.50;92.40
44900;DHT22;30628;51.188;6.770;2023-06-19T11:09:11;28.30;91.70
44900;DHT22;30628;51.188;6.770;2023-06-19T11:11:46;28.40;92.00
44900;DHT22;30628;51.188;6.770;2023-06-19T11:14:15;28.70;92.20
44900;DHT22;30628;51.188;6.770;2023-06-19T11:16:43;28.80;92.00
44900;DHT22;30628;51.188;6.770;2023-06-19T11:19:22;28.80;92.10
44900;DHT22;30628;51.188;6.770;2023-06-19T11:21:52;29.00;91.30
44900;DHT22;30628;51.188;6.770;2023-06-19T11:24:19;29.00;91.60
44900;DHT22;30628;51.188;6.770;2023-06-19T11:26:48;28.90;91.80
44900;DHT22;30628;51.188;6.770;2023-06-19T11:29:26;29.00;91.20
44900;DHT22;30628;51.188;6.770;2023-06-19T11:32:08;29.00;91.10
44900;DHT22;30628;51.188;6.770;2023-06-19T11:34:35;29.10;91.20
44900;DHT22;30628;51.188;6.770;2023-06-19T11:37:23;29.20;90.80
44900;DHT22;30628;51.188;6.770;2023-06-19T11:39:50;29.10;90.50
44900;DHT22;30628;51.188;6.770;2023-06-19T11:42:18;29.30;90.70
44900;DHT22;30628;51.188;6.770;2023-06-19T11:44:56;29.30;90.60
44900;DHT22;30628;51.188;6.770;2023-06-19T11:47:23;29.50;90.90
44900;DHT22;30628;51.188;6.770;2023-06-19T11:49:50;29.60;90.80
44900;DHT22;30628;51.188;6.770;2023-06-19T11:52:17;29.40;90.50
44900;DHT22;30628;51.188;6.770;2023-06-19T11:54:43;29.20;90.10
44900;DHT22;30628;51.188;6.770;2023-06-19T11:57:10;29.40;90.30
44900;DHT22;30628;51.188;6.770;2023-06-19T11:59:39;29.50;90.70
44900;DHT22;30628;51.188;6.770;2023-06-19T12:02:06;29.50;90.50
44900;DHT22;30628;51.188;6.770;2023-06-19T12:04:33;29.50;90.60
44900;DHT22;30628;51.188;6.770;2023-06-19T12:07:00;29.50;90.60
44900;DHT22;30628;51.188;6.770;2023-06-19T12:09:26;29.60;90.50
44900;DHT22;30628;51.188;6.770;2023-06-19T12:11:53;29.50;89.90
44900;DHT22;30628;51.188;6.770;2023-06-19T12:14:19;29.40;88.50
44900;DHT22;30628;51.188;6.770;2023-06-19T12:16:47;29.60;90.20
44900;DHT22;30628;51.188;6.770;2023-06-19T12:19:13;29.60;90.00
44900;DHT22;30628;51.188;6.770;2023-06-19T12:21:40;29.50;90.20
44900;DHT22;30628;51.188;6.770;2023-06-19T12:24:06;29.60;90.70
44900;DHT22;30628;51.188;6.770;2023-06-19T12:26:34;29.70;90.30
44900;DHT22;30628;51.188;6.770;2023-06-19T12:29:04;29.80;90.40
44900;DHT22;30628;51.188;6.770;2023-06-19T12:31:34;29.70;90.30
44900;DHT22;30628;51.188;6.770;2023-06-19T12:34:02;29.70;90.10
44900;DHT22;30628;51.188;6.770;2023-06-19T12:36:29;29.60;90.30
44900;DHT22;30628;51.188;6.770;2023-06-19T12:38:58;29.60;90.10
44900;DHT22;30628;51.188;6.770;2023-06-19T12:41:25;29.60;90.70
44900;DHT22;30628;51.188;6.770;2023-06-19T12:43:51;29.70;91.00
44900;DHT22;30628;51.188;6.770;2023-06-19T12:46:17;29.70;90.70
44900;DHT22;30628;51.188;6.770;2023-06-19T12:48:43;29.70;90.20
44900;DHT22;30628;51.188;6.770;2023-06-19T12:51:09;29.60;90.50
44900;DHT22;30628;51.188;6.770;2023-06-19T12:53:35;29.50;90.00
44900;DHT22;30628;51.188;6.770;2023-06-19T12:56:02;29.50;90.00
44900;DHT22;30628;51.188;6.770;2023-06-19T12:58:28;29.50;90.20
44900;DHT22;30628;51.188;6.770;2023-06-19T13:00:54;29.50;90.70
44900;DHT22;30628;51.188;6.770;2023-06-19T13:03:20;29.60;90.70
44900;DHT22;30628;51.188;6.770;2023-06-19T13:05:46;29.70;90.70
44900;DHT22;30628;51.188;6.770;2023-06-19T13:08:13;29.90;90.90
44900;DHT22;30628;51.188;6.770;2023-06-19T13:10:39;30.00;90.10
44900;DHT22;30628;51.188;6.770;2023-06-19T13:13:06;30.00;89.70
44900;DHT22;30628;51.188;6.770;2023-06-19T13:15:32;30.00;89.20
44900;DHT22;30628;51.188;6.770;2023-06-19T13:18:01;29.80;89.70
44900;DHT22;30628;51.188;6.770;2023-06-19T13:20:27;29.80;89.90
44900;DHT22;30628;51.188;6.770;2023-06-19T13:22:54;29.90;89.50
44900;DHT22;30628;51.188;6.770;2023-06-19T13:25:20;29.90;90.60
44900;DHT22;30628;51.188;6.770;2023-06-19T13:27:46;30.00;89.20
44900;DHT22;30628;51.188;6.770;2023-06-19T13:30:13;30.10;89.40
44900;DHT22;30628;51.188;6.770;2023-06-19T13:32:39;30.20;90.50
44900;DHT22;30628;51.188;6.770;2023-06-19T13:35:06;30.30;90.50
44900;DHT22;30628;51.188;6.770;2023-06-19T13:37:36;30.40;90.00
44900;DHT22;30628;51.188;6.770;2023-06-19T13:40:03;30.40;90.40
44900;DHT22;30628;51.188;6.770;2023-06-19T13:42:30;30.50;89.60
44900;DHT22;30628;51.188;6.770;2023-06-19T13:44:57;30.40;88.30
44900;DHT22;30628;51.188;6.770;2023-06-19T13:47:23;30.30;89.00
44900;DHT22;30628;51.188;6.770;2023-06-19T13:49:53;30.30;89.70
44900;DHT22;30628;51.188;6.770;2023-06-19T13:52:19;30.40;90.30
44900;DHT22;30628;51.188;6.770;2023-06-19T13:54:46;30.40;89.00
44900;DHT22;30628;51.188;6.770;2023-06-19T13:57:12;30.30;90.40
44900;DHT22;30628;51.188;6.770;2023-06-19T13:59:38;30.40;89.00
44900;DHT22;30628;51.188;6.770;2023-06-19T14:02:07;30.00;89.10
44900;DHT22;30628;51.188;6.770;2023-06-19T14:04:35;30.10;88.60
44900;DHT22;30628;51.188;6.770;2023-06-19T14:07:01;30.00;90.20
44900;DHT22;30628;51.188;6.770;2023-06-19T14:09:27;30.00;90.00
44900;DHT22;30628;51.188;6.770;2023-06-19T14:11:53;30.10;90.10
44900;DHT22;30628;51.188;6.770;2023-06-19T14:14:19;30.20;90.00
44900;DHT22;30628;51.188;6.770;2023-06-19T14:16:46;30.20;87.10
44900;DHT22;30628;51.188;6.770;2023-06-19T14:19:12;30.20;89.30
44900;DHT22;30628;51.188;6.770;2023-06-19T14:21:38;30.20;88.10
44900;DHT22;30628;51.188;6.770;2023-06-19T14:24:04;30.20;88.70
44900;DHT22;30628;51.188;6.770;2023-06-19T14:26:30;30.10;89.40
44900;DHT22;30628;51.188;6.770;2023-06-19T14:28:56;30.00;88.60
44900;DHT22;30628;51.188;6.770;2023-06-19T14:31:24;30.10;90.10
44900;DHT22;30628;51.188;6.770;2023-06-19T14:33:51;30.20;89.10
44900;DHT22;30628;51.188;6.770;2023-06-19T14:36:17;30.20;89.20
44900;DHT22;30628;51.188;6.770;2023-06-19T14:38:43;30.10;88.60
44900;DHT22;30628;51.188;6.770;2023-06-19T14:41:09;30.10;87.00
44900;DHT22;30628;51.188;6.770;2023-06-19T14:43:35;30.10;88.10
44900;DHT22;30628;51.188;6.770;2023-06-19T14:46:01;30.10;88.10
44900;DHT22;30628;51.188;6.770;2023-06-19T14:48:30;30.30;87.80
44900;DHT22;30628;51.188;6.770;2023-06-19T14:50:56;30.20;88.10
44900;DHT22;30628;51.188;6.770;2023-06-19T14:53:22;30.20;87.70
44900;DHT22;30628;51.188;6.770;2023-06-19T14:55:48;30.30;88.20
44900;DHT22;30628;51.188;6.770;2023-06-19T14:58:15;30.20;86.00
44900;DHT22;30628;51.188;6.770;2023-06-19T15:00:41;30.30;87.60
44900;DHT22;30628;51.188;6.770;2023-06-19T15:03:08;30.30;87.40
44900;DHT22;30628;51.188;6.770;2023-06-19T15:05:34;30.20;87.10
44900;DHT22;30628;51.188;6.770;2023-06-19T15:08:00;30.20;87.60
44900;DHT22;30628;51.188;6.770;2023-06-19T15:10:27;30.20;89.00
44900;DHT22;30628;51.188;6.770;2023-06-19T15:12:54;30.30;86.90
44900;DHT22;30628;51.188;6.770;2023-06-19T15:15:20;30.30;87.60
44900;DHT22;30628;51.188;6.770;2023-06-19T15:17:46;30.30;88.90
44900;DHT22;30628;51.188;6.770;2023-06-19T15:20:12;30.30;88.50
44900;DHT22;30628;51.188;6.770;2023-06-19T15:22:39;30.40;88.20
44900;DHT22;30628;51.188;6.770;2023-06-19T15:25:06;30.40;87.70
44900;DHT22;30628;51.188;6.770;2023-06-19T15:27:32;30.40;86.30
44900;DHT22;30628;51.188;6.770;2023-06-19T15:29:58;30.30;85.60
44900;DHT22;30628;51.188;6.770;2023-06-19T15:32:24;30.40;87.50
44900;DHT22;30628;51.188;6.770;2023-06-19T15:34:50;30.40;88.10
44900;DHT22;30628;51.188;6.770;2023-06-19T15:37:16;30.40;87.40
44900;DHT22;30628;51.188;6.770;2023-06-19T15:39:43;30.20;86.00